createdAt,value
2019-05-09T14:23:51.339Z,33.81
2019-05-09T14:26:14.176Z,33.74
2019-05-09T14:28:49.023Z,33.84
2019-05-09T14:31:21.217Z,33.94
2019-05-09T14:33:54.037Z,34.08
2019-05-09T14:36:27.767Z,34.24
2019-05-09T14:39:09.238Z,34.38
2019-05-09T14:41:41.952Z,34.46
2019-05-09T14:44:18.209Z,34.55
2019-05-09T14:46:50.882Z,34.53
2019-05-09T14:49:23.407Z,34.58
2019-05-09T14:52:02.049Z,34.60
2019-05-09T14:54:34.813Z,34.65
2019-05-09T14:57:09.814Z,34.68
2019-05-09T14:59:44.925Z,34.73
2019-05-09T15:02:18.210Z,34.73
2019-05-09T15:04:50.851Z,34.67
2019-05-09T15:07:23.912Z,34.70
2019-05-09T15:09:59.724Z,34.62
2019-05-09T15:12:31.408Z,34.64
2019-05-09T15:15:07.958Z,34.58
2019-05-09T15:17:40.613Z,34.55
2019-05-09T15:20:13.462Z,34.64
2019-05-09T15:22:52.805Z,34.59
2019-05-09T15:25:31.997Z,34.61
2019-05-09T15:28:04.455Z,34.64
2019-05-09T15:30:38.577Z,34.64
2019-05-09T15:33:10.708Z,34.70
2019-05-09T15:35:43.208Z,34.67
2019-05-09T15:38:18.281Z,34.64
2019-05-09T15:40:51.831Z,34.64
2019-05-09T15:43:38.241Z,34.69
2019-05-09T15:46:12.402Z,34.63
2019-05-09T15:49:03.212Z,34.63
2019-05-09T15:51:38.604Z,34.70
2019-05-09T15:54:11.567Z,34.67
2019-05-09T15:56:53.425Z,34.71
2019-05-09T15:59:38.976Z,34.67
2019-05-09T16:02:18.941Z,34.67
2019-05-09T16:04:58.676Z,34.72
2019-05-09T16:07:28.595Z,34.63
2019-05-09T16:10:08.721Z,34.72
2019-05-09T16:12:41.787Z,34.67
2019-05-09T16:15:14.511Z,34.76
2019-05-09T16:17:48.466Z,34.72
2019-05-09T16:20:36.855Z,34.71
2019-05-09T16:23:08.406Z,34.68
2019-05-09T16:25:54.456Z,34.71
2019-05-09T16:28:27.334Z,34.69
2019-05-09T16:31:01.054Z,34.71
2019-05-09T16:33:41.125Z,34.66
2019-05-09T16:36:13.233Z,34.60
2019-05-09T16:38:48.793Z,34.61
2019-05-09T16:41:20.795Z,34.64
2019-05-09T16:43:54.480Z,34.64
2019-05-09T16:46:30.791Z,34.63
2019-05-09T16:49:05.795Z,34.68
2019-05-09T16:51:45.122Z,34.62
2019-05-09T16:54:22.702Z,34.72
2019-05-09T16:57:01.656Z,34.70
2019-05-09T16:59:35.625Z,34.62
2019-05-09T17:02:18.963Z,34.68
2019-05-09T17:04:43.169Z,34.67
2019-05-09T17:07:18.074Z,34.71
2019-05-09T17:09:58.158Z,34.70
2019-05-09T17:12:38.017Z,34.60
2019-05-09T17:15:17.962Z,34.68
2019-05-09T17:17:54.353Z,34.75
2019-05-09T17:20:35.316Z,34.64
2019-05-09T17:23:13.707Z,34.61
2019-05-09T17:25:42.057Z,34.75
2019-05-09T17:28:17.751Z,34.64
2019-05-09T17:30:50.128Z,34.81
2019-05-09T17:33:28.702Z,34.82
2019-05-09T17:36:01.598Z,34.71
2019-05-09T17:38:34.268Z,34.87
2019-05-09T17:41:08.244Z,34.78
2019-05-09T17:43:42.025Z,34.80
2019-05-09T17:46:19.182Z,34.68
2019-05-09T17:48:52.206Z,34.69
2019-05-09T17:51:34.039Z,34.78
2019-05-09T17:54:03.214Z,34.75
2019-05-09T17:56:43.189Z,34.73
2019-05-09T17:59:18.151Z,34.83
2019-05-09T18:01:53.025Z,34.77
2019-05-09T18:04:28.490Z,34.72
2019-05-09T18:07:00.569Z,34.75
2019-05-09T18:09:33.448Z,34.70
2019-05-09T18:12:12.848Z,34.77
2019-05-09T18:14:47.636Z,34.73
2019-05-09T18:17:19.755Z,34.77
2019-05-09T18:19:53.453Z,34.76
2019-05-09T18:22:26.543Z,34.85
2019-05-09T18:24:59.508Z,34.90
2019-05-09T18:27:37.953Z,34.87
2019-05-09T18:30:11.962Z,34.89
2019-05-09T18:32:47.645Z,34.80
2019-05-09T18:35:22.034Z,34.74
2019-05-09T18:37:58.871Z,34.84
2019-05-09T18:40:33.009Z,34.81
2019-05-09T18:43:07.717Z,34.73
2019-05-09T18:45:40.249Z,34.85
2019-05-09T18:48:13.089Z,34.87
2019-05-09T18:50:45.874Z,34.89
2019-05-09T18:53:18.785Z,34.95
2019-05-09T18:55:51.448Z,34.87
2019-05-09T18:58:24.359Z,34.84
2019-05-09T19:00:57.557Z,34.83
2019-05-09T19:03:30.041Z,34.83
2019-05-09T19:06:09.944Z,34.82
2019-05-09T19:08:42.827Z,34.77
2019-05-09T19:11:19.623Z,34.87
2019-05-09T19:13:52.360Z,34.78
2019-05-09T19:16:27.672Z,34.73
2019-05-09T19:19:01.362Z,34.84
2019-05-09T19:21:36.144Z,34.88
2019-05-09T19:24:09.554Z,34.82
2019-05-09T19:26:42.388Z,34.80
2019-05-09T19:29:21.740Z,34.74
2019-05-09T19:32:01.878Z,34.85
2019-05-09T19:34:34.297Z,34.77
2019-05-09T19:37:07.243Z,34.73
2019-05-09T19:39:39.929Z,34.81
2019-05-09T19:42:15.665Z,34.68
2019-05-09T19:44:48.296Z,34.70
2019-05-09T19:47:21.299Z,34.62
2019-05-09T19:49:53.977Z,34.59
2019-05-09T19:52:37.719Z,34.67
2019-05-09T19:55:00.961Z,34.60
2019-05-09T19:57:33.923Z,34.76
2019-05-09T20:00:08.625Z,34.61
2019-05-09T20:02:47.839Z,34.76
2019-05-09T20:05:20.348Z,34.76
2019-05-09T20:07:59.080Z,34.61
2019-05-09T20:10:33.163Z,34.65
2019-05-09T20:13:08.105Z,34.56
2019-05-09T20:15:41.333Z,34.68
2019-05-09T20:18:14.128Z,34.59
2019-05-09T20:20:46.577Z,34.65
2019-05-09T20:23:27.875Z,34.68
2019-05-09T20:26:00.704Z,34.63
2019-05-09T20:28:52.066Z,34.63
2019-05-09T20:31:30.803Z,34.57
2019-05-09T20:34:04.316Z,34.60
2019-05-09T20:36:36.649Z,34.41
2019-05-09T20:39:09.702Z,34.46
2019-05-09T20:41:42.333Z,34.51
2019-05-09T20:44:14.673Z,34.51
2019-05-09T20:46:48.543Z,34.46
2019-05-09T20:49:22.085Z,34.42
2019-05-09T20:51:54.679Z,34.46
2019-05-09T20:54:28.210Z,34.44
2019-05-09T20:57:12.847Z,34.40
2019-05-09T20:59:46.775Z,34.41
2019-05-09T21:02:25.680Z,34.42
2019-05-09T21:04:59.290Z,34.43
2019-05-09T21:07:36.582Z,34.34
2019-05-09T21:10:09.769Z,34.41
2019-05-09T21:12:42.260Z,34.31
2019-05-09T21:15:15.541Z,34.30
2019-05-09T21:17:48.271Z,34.28
2019-05-09T21:20:21.694Z,34.18
2019-05-09T21:22:54.598Z,34.07
2019-05-09T21:25:32.782Z,34.16
2019-05-09T21:28:04.403Z,34.29
2019-05-09T21:30:40.695Z,34.12
2019-05-09T21:33:13.731Z,34.20
2019-05-09T21:35:46.196Z,34.15
2019-05-09T21:38:18.775Z,34.07
2019-05-09T21:40:52.077Z,34.06
2019-05-09T21:43:25.625Z,34.09
2019-05-09T21:45:58.038Z,34.14
2019-05-09T21:48:33.640Z,34.08
2019-05-09T21:51:05.931Z,34.11
2019-05-09T21:53:41.203Z,33.89
2019-05-09T21:56:13.098Z,34.09
2019-05-09T21:58:45.897Z,34.01
2019-05-09T22:01:20.569Z,34.00
2019-05-09T22:03:53.814Z,33.99
2019-05-09T22:06:26.865Z,34.05
2019-05-09T22:09:05.997Z,34.01
2019-05-09T22:11:40.247Z,33.95
2019-05-09T22:14:12.932Z,33.81
2019-05-09T22:16:45.204Z,33.85
2019-05-09T22:19:18.060Z,33.76
2019-05-09T22:21:51.538Z,33.83
2019-05-09T22:24:24.116Z,33.79
2019-05-09T22:26:56.870Z,33.69
2019-05-09T22:29:37.747Z,33.77
2019-05-09T22:32:10.219Z,33.87
2019-05-09T22:34:43.176Z,33.89
2019-05-09T22:37:15.376Z,33.80
2019-05-09T22:39:47.713Z,33.80
2019-05-09T22:42:20.983Z,33.76
